Greenfield, Wisconsin
Current Conditions -  °F | °C
As of 5:21 PM on Monday 22 Dec 2014 (Local Time) from KMKE Reporting Station
Light Rain Light Rain  
Wind Chill: 29°   Ceiling: 400
Heat Index: 38°   Visibility: 2mi
Dew Point: 35°   Wind: 15mph
Humidity: 89%   Direction: 110°ESE
Pressure: 29.72"   Gusts: NA
Location:  42.97°N, 88°W
Report Text: KMKE 222321Z 11013KT 2SM -RA BR OVC004 03/02 A2972 RMK AO2 SFC VIS 2 1/2 P0004 T00330017
Loading
Personal Weather Stations






























Interactive Weather Map New forecast layout! Learn more

10-Day Weather Forecast

Advertisements
Track Severe Weather on mobile